LSGGLFLC

Guest
Details From LSGG - Geneva
To LFLC - Clermont-Ferrand_Auvergne
Flight Number -
Tags generated
Created
Modified
Stats Distance 125 nm / 232 km
Max Altitude 8,400 ft / 2,560 m
Waypoints 3
Social Downloads 0
Likes 0
Share

Download

Looking for another format? Having issues loading an existing format? Contact us
Advertisement - Login to hide

Notes

Basic altitude profile: - Ascent Rate: 2500ft/min - Ascent Speed: 250kts - Cruise Altitude: 35000ft - Cruise Speed: 420kts - Descent Rate: 1500ft/min - Descent Speed: 250kts Options: - Use NATs: yes - Use PACOTS: yes - Use low airways: yes - Use high airways: yes

Route

LSGG NINTU LFLC

ID Type Via Altitude (ft/m) Position (lat/lon) Dist (leg/tot) Name
O LSGG APT - 0 / 0 46.23775 / 6.10617 - / 0 nm Geneva
NINTU FIX - 8,400 / 2,560 46.14722 / 5.55306 23 / 23 nm
O LFLC APT - 0 / 0 45.78671 / 3.16997 101 / 125 nm Clermont-Ferrand_Auvergne

Altitude Profile

Advertisement - Login to hide

LSGG

Details ICAO LSGG (GVA)
Name Geneva
Region Switzerland
Timezone Europe/Zurich (UTC+2.0)
Stats Elevation 1,411 ft / 430 m (AMSL)
Location 46.238100° 6.109010°
Runways 1
Magnetic Variation 2.195° E

METAR

LSGG 231720Z 20009KT CAVOK 21/12 Q1021 NOSIG

Decode

TAF

TAF TAF LSGG 231425Z 2315/2421 22005KT CAVOK TX23/2315Z TN09/2405Z TX24/2415Z BECMG 2407/2409 9999 FEW030

Decode

Departure Runways

ID Width Length Bearing (true/mag) Surface Threshold Overrun Markings Lighting
04 164 ft / 50 m 12,806 ft / 3,903 m 45.42° / 43.23° CONCRETE 1,076 ft / 328 m 0 ft / 0 m PREC-APP CENTERLINE EDGE THRESHOLD CALVERT TDZ REIL-OMNI
22 164 ft / 50 m 12,806 ft / 3,903 m 225.45° / 223.25° CONCRETE 0 ft / 0 m 0 ft / 0 m PREC-APP CENTERLINE EDGE THRESHOLD CALVERT-ILS TDZ REIL-OMNI

LFLC

Details ICAO LFLC (CFE)
Name Clermont-Ferrand Auvergne
Region France
Timezone Europe/Paris (UTC+2.0)
Stats Elevation 1,091 ft / 333 m (AMSL)
Location 45.786700° 3.169980°
Runways 1
Magnetic Variation 1.445° E

METAR

LFLC 231730Z AUTO 03004KT CAVOK 20/12 Q1020 NOSIG

Decode

TAF

TAF LFLC 231100Z 2312/2412 02005KT CAVOK TEMPO 2402/2409 3000 BR PROB40 2403/2408 0600 FG VV///

Decode

Destination Runways

ID Width Length Bearing (true/mag) Surface Threshold Overrun Markings Lighting
08 148 ft / 45 m 9,869 ft / 3,008 m 81.95° / 80.50° ASPHALT 0 ft / 0 m 0 ft / 0 m APP CENTERLINE EDGE THRESHOLD
26 148 ft / 45 m 9,869 ft / 3,008 m 261.98° / 260.53° ASPHALT 469 ft / 143 m 0 ft / 0 m PREC-APP CENTERLINE EDGE THRESHOLD ALSF-II TDZ

Approach Navaids

Runway Type Ident Frequency Range Bearing (true/mag) Slope Elevation
26 GS CF 111.10 MHz 10 nm / 19 km 261.96° / 260.52 ° 3.00° 1,091 ft / 333 m (AMSL)
26 DME CF 111.10 MHz 27 nm / 50 km - - 1,089 ft / 332 m (AMSL)
26 LOC-ILS CF 111.10 MHz 18 nm / 33 km 261.96° / 260.52 ° - 1,091 ft / 333 m (AMSL)

Popular Alternatives